CheckWX is a tool to help pilots better visualize weather data.  It is not intended as a substitute for an official pre-flight weather briefing.

16:08:34 UTC

CYXC METAR
Cranbrook Airport
Cranbrook, Canada
Current

1 hour ago

CYXC 291500Z 27002KT 45SM FEW120 BKN160 BKN240 13/05 A3012 RMK AC1AC5CI1 VIRGA ALQDS SLP194 DENSITY ALT 3400FT
Observed
May-29 @ 15:00 UTC
Wind
  • 270° at 2 KTS
Visibility
Flight Rules
VFR
Cloud Levels
  • Few at 12,000' AGL
  • Broken at 16,000' AGL
  • Broken at 24,000' AGL
Temperature
13°C / 55°F
Dewpoint
C / 41°F
Humidity
59%
Altimeter
30.12" Hg
Pressure
1020.02 hPa
Previous

2 hours ago

CYXC 291400Z VRB02KT 45SM FEW120 BKN160 BKN240 12/04 A3012 RMK AC1AC5CI1 VIRGA SE-W SLP196 DENSITY ALT 3200FT
Observed
May-29 @ 14:00 UTC
Wind
  • Variable at 2 KTS
Visibility
Flight Rules
VFR
Cloud Levels
  • Few at 12,000' AGL
  • Broken at 16,000' AGL
  • Broken at 24,000' AGL
Temperature
12°C / 54°F
Dewpoint
C / 39°F
Humidity
58%
Altimeter
30.12" Hg
Pressure
1020.02 hPa
Previous

3 hours ago

CYXC 291300Z VRB02KT 45SM FEW120 FEW180 SCT240 10/03 A3012 RMK AC2AC1CI1 AC TR SLP198
Observed
May-29 @ 13:00 UTC
Wind
  • Variable at 2 KTS
Visibility
Flight Rules
VFR
Cloud Levels
  • Few at 12,000' AGL
  • Few at 18,000' AGL
  • Scattered at 24,000' AGL
Temperature
10°C / 50°F
Dewpoint
C / 37°F
Humidity
62%
Altimeter
30.12" Hg
Pressure
1020.02 hPa